Seattle, Washington
Traffic Map
Current Weather Conditions
Seattle, Washington
Clear
Clear
16°
Feels Like: 16°
Wind Chill: 16° Ceiling: Unl
Heat Index: 16° Visibility: 10mi
Dew Point: Wind: 7mph
Humidity: 60% Direction: 150° (SSE)
Pressure: 29.95in Gusts: 0mph
Raw Report DataKBFI 261953Z 15006KT 10SM CLR 16/08 A2995 RMK AO2 SLP142 T01560078
Traffic Incident Summary
Active as of:
Severity:
Category:
InformationThere was an issue retrieving the traffic information for this location. Please try a different location or try again shortly.
Advertisements
Track Severe Weather on mobile